sensor_id;sensor_type;location;lat;lon;timestamp;temperature;humidity
64111;DHT22;50401;48.188;11.566;2022-12-29T00:01:31;5.54;64.46
64111;DHT22;50401;48.188;11.566;2022-12-29T00:03:57;5.58;64.49
64111;DHT22;50401;48.188;11.566;2022-12-29T00:06:22;5.54;64.47
64111;DHT22;50401;48.188;11.566;2022-12-29T00:08:47;5.55;64.22
64111;DHT22;50401;48.188;11.566;2022-12-29T00:11:20;5.56;64.21
64111;DHT22;50401;48.188;11.566;2022-12-29T00:13:45;5.58;64.15
64111;DHT22;50401;48.188;11.566;2022-12-29T00:16:29;5.59;64.03
64111;DHT22;50401;48.188;11.566;2022-12-29T00:18:55;5.58;63.87
64111;DHT22;50401;48.188;11.566;2022-12-29T00:21:21;5.65;63.76
64111;DHT22;50401;48.188;11.566;2022-12-29T00:24:05;5.62;63.67
64111;DHT22;50401;48.188;11.566;2022-12-29T00:26:33;5.63;63.55
64111;DHT22;50401;48.188;11.566;2022-12-29T00:29:17;5.61;63.57
64111;DHT22;50401;48.188;11.566;2022-12-29T00:32:01;5.59;63.69
64111;DHT22;50401;48.188;11.566;2022-12-29T00:34:45;5.61;63.69
64111;DHT22;50401;48.188;11.566;2022-12-29T00:37:29;5.65;63.50
64111;DHT22;50401;48.188;11.566;2022-12-29T00:40:13;5.69;63.11
64111;DHT22;50401;48.188;11.566;2022-12-29T00:42:57;5.69;62.93
64111;DHT22;50401;48.188;11.566;2022-12-29T00:45:41;5.72;62.63
64111;DHT22;50401;48.188;11.566;2022-12-29T00:48:06;5.75;62.47
64111;DHT22;50401;48.188;11.566;2022-12-29T00:50:33;5.75;62.30
64111;DHT22;50401;48.188;11.566;2022-12-29T00:52:59;5.73;62.32
64111;DHT22;50401;48.188;11.566;2022-12-29T00:55:24;5.68;62.39
64111;DHT22;50401;48.188;11.566;2022-12-29T00:57:49;5.73;62.22
64111;DHT22;50401;48.188;11.566;2022-12-29T01:00:14;5.72;62.14
64111;DHT22;50401;48.188;11.566;2022-12-29T01:02:42;5.71;62.19
64111;DHT22;50401;48.188;11.566;2022-12-29T01:05:08;5.68;62.20
64111;DHT22;50401;48.188;11.566;2022-12-29T01:07:33;5.72;62.01
64111;DHT22;50401;48.188;11.566;2022-12-29T01:09:58;5.75;61.70
64111;DHT22;50401;48.188;11.566;2022-12-29T01:12:36;5.71;61.98
64111;DHT22;50401;48.188;11.566;2022-12-29T01:15:10;5.75;61.70
64111;DHT22;50401;48.188;11.566;2022-12-29T01:17:35;5.69;61.70
64111;DHT22;50401;48.188;11.566;2022-12-29T01:20:01;5.71;61.68
64111;DHT22;50401;48.188;11.566;2022-12-29T01:22:27;5.66;61.75
64111;DHT22;50401;48.188;11.566;2022-12-29T01:24:52;5.65;61.79
64111;DHT22;50401;48.188;11.566;2022-12-29T01:27:17;5.65;61.77
64111;DHT22;50401;48.188;11.566;2022-12-29T01:29:43;5.63;61.76
64111;DHT22;50401;48.188;11.566;2022-12-29T01:32:08;5.61;61.89
64111;DHT22;50401;48.188;11.566;2022-12-29T01:34:33;5.56;62.11
64111;DHT22;50401;48.188;11.566;2022-12-29T01:36:58;5.52;62.40
64111;DHT22;50401;48.188;11.566;2022-12-29T01:39:24;5.63;62.14
64111;DHT22;50401;48.188;11.566;2022-12-29T01:41:49;5.66;61.82
64111;DHT22;50401;48.188;11.566;2022-12-29T01:46:58;5.72;61.31
64111;DHT22;50401;48.188;11.566;2022-12-29T01:49:24;5.71;61.36
64111;DHT22;50401;48.188;11.566;2022-12-29T01:51:52;5.73;61.11
64111;DHT22;50401;48.188;11.566;2022-12-29T01:54:21;5.80;60.92
64111;DHT22;50401;48.188;11.566;2022-12-29T01:56:47;5.80;60.88
64111;DHT22;50401;48.188;11.566;2022-12-29T01:59:15;5.78;60.92
64111;DHT22;50401;48.188;11.566;2022-12-29T02:01:42;5.80;61.05
64111;DHT22;50401;48.188;11.566;2022-12-29T02:04:08;5.78;61.03
64111;DHT22;50401;48.188;11.566;2022-12-29T02:06:35;5.82;60.98
64111;DHT22;50401;48.188;11.566;2022-12-29T02:09:02;5.79;60.77
64111;DHT22;50401;48.188;11.566;2022-12-29T02:11:28;5.83;60.81
64111;DHT22;50401;48.188;11.566;2022-12-29T02:13:53;5.79;60.90
64111;DHT22;50401;48.188;11.566;2022-12-29T02:37:13;5.78;60.85
64111;DHT22;50401;48.188;11.566;2022-12-29T02:42:47;5.78;60.67
64111;DHT22;50401;48.188;11.566;2022-12-29T02:45:22;5.80;60.67
64111;DHT22;50401;48.188;11.566;2022-12-29T02:47:51;5.82;60.44
64111;DHT22;50401;48.188;11.566;2022-12-29T02:50:20;5.86;60.10
64111;DHT22;50401;48.188;11.566;2022-12-29T02:52:51;5.88;60.10
64111;DHT22;50401;48.188;11.566;2022-12-29T02:55:19;5.88;60.16
64111;DHT22;50401;48.188;11.566;2022-12-29T02:57:45;5.90;59.89
64111;DHT22;50401;48.188;11.566;2022-12-29T03:00:11;5.90;59.78
64111;DHT22;50401;48.188;11.566;2022-12-29T03:07:56;5.99;59.10
64111;DHT22;50401;48.188;11.566;2022-12-29T03:15:39;6.03;59.05
64111;DHT22;50401;48.188;11.566;2022-12-29T03:18:29;6.04;59.11
64111;DHT22;50401;48.188;11.566;2022-12-29T03:21:07;6.04;59.13
64111;DHT22;50401;48.188;11.566;2022-12-29T03:23:35;6.06;58.95
64111;DHT22;50401;48.188;11.566;2022-12-29T03:26:02;6.13;59.15
64111;DHT22;50401;48.188;11.566;2022-12-29T03:28:30;6.11;58.92
64111;DHT22;50401;48.188;11.566;2022-12-29T03:30:57;6.17;58.70
64111;DHT22;50401;48.188;11.566;2022-12-29T03:33:24;6.21;58.77
64111;DHT22;50401;48.188;11.566;2022-12-29T03:35:50;6.31;58.35
64111;DHT22;50401;48.188;11.566;2022-12-29T03:39:04;6.35;57.99
64111;DHT22;50401;48.188;11.566;2022-12-29T03:41:03;6.38;57.92
64111;DHT22;50401;48.188;11.566;2022-12-29T03:43:30;6.44;57.71
64111;DHT22;50401;48.188;11.566;2022-12-29T03:45:55;6.44;57.44
64111;DHT22;50401;48.188;11.566;2022-12-29T03:48:21;6.46;57.80
64111;DHT22;50401;48.188;11.566;2022-12-29T03:50:46;6.49;57.48
64111;DHT22;50401;48.188;11.566;2022-12-29T03:53:11;6.50;57.35
64111;DHT22;50401;48.188;11.566;2022-12-29T03:55:36;6.56;57.03
64111;DHT22;50401;48.188;11.566;2022-12-29T03:58:02;6.56;57.05
64111;DHT22;50401;48.188;11.566;2022-12-29T04:00:27;6.61;56.89
64111;DHT22;50401;48.188;11.566;2022-12-29T04:02:53;6.61;56.77
64111;DHT22;50401;48.188;11.566;2022-12-29T04:05:18;6.62;56.73
64111;DHT22;50401;48.188;11.566;2022-12-29T04:07:44;6.66;56.81
64111;DHT22;50401;48.188;11.566;2022-12-29T04:10:09;6.65;56.68
64111;DHT22;50401;48.188;11.566;2022-12-29T04:12:34;6.68;56.59
64111;DHT22;50401;48.188;11.566;2022-12-29T04:15:00;6.71;56.52
64111;DHT22;50401;48.188;11.566;2022-12-29T04:17:25;6.71;56.44
64111;DHT22;50401;48.188;11.566;2022-12-29T04:19:50;6.71;56.26
64111;DHT22;50401;48.188;11.566;2022-12-29T04:22:16;6.71;56.41
64111;DHT22;50401;48.188;11.566;2022-12-29T04:24:41;6.73;56.51
64111;DHT22;50401;48.188;11.566;2022-12-29T04:27:06;6.75;56.25
64111;DHT22;50401;48.188;11.566;2022-12-29T04:29:31;6.72;56.24
64111;DHT22;50401;48.188;11.566;2022-12-29T04:31:57;6.77;56.03
64111;DHT22;50401;48.188;11.566;2022-12-29T04:34:22;6.77;56.19
64111;DHT22;50401;48.188;11.566;2022-12-29T04:36:47;6.82;56.15
64111;DHT22;50401;48.188;11.566;2022-12-29T04:39:13;6.83;55.77
64111;DHT22;50401;48.188;11.566;2022-12-29T04:41:38;6.87;55.62
64111;DHT22;50401;48.188;11.566;2022-12-29T04:44:03;6.89;55.49
64111;DHT22;50401;48.188;11.566;2022-12-29T04:46:28;6.93;55.18
64111;DHT22;50401;48.188;11.566;2022-12-29T04:48:54;6.97;55.04
64111;DHT22;50401;48.188;11.566;2022-12-29T04:51:19;6.96;54.97
64111;DHT22;50401;48.188;11.566;2022-12-29T04:53:44;6.91;55.18
64111;DHT22;50401;48.188;11.566;2022-12-29T04:56:10;6.93;55.08
64111;DHT22;50401;48.188;11.566;2022-12-29T04:58:35;7.01;55.03
64111;DHT22;50401;48.188;11.566;2022-12-29T05:01:01;7.03;54.78
64111;DHT22;50401;48.188;11.566;2022-12-29T05:03:26;7.03;54.74
64111;DHT22;50401;48.188;11.566;2022-12-29T05:05:55;7.03;54.86
64111;DHT22;50401;48.188;11.566;2022-12-29T05:08:20;7.04;54.55
64111;DHT22;50401;48.188;11.566;2022-12-29T05:10:46;7.04;54.74
64111;DHT22;50401;48.188;11.566;2022-12-29T05:13:11;7.08;54.56
64111;DHT22;50401;48.188;11.566;2022-12-29T05:15:36;7.12;54.62
64111;DHT22;50401;48.188;11.566;2022-12-29T05:18:01;7.11;54.53
64111;DHT22;50401;48.188;11.566;2022-12-29T05:20:27;7.14;54.57
64111;DHT22;50401;48.188;11.566;2022-12-29T05:22:52;7.19;54.49
64111;DHT22;50401;48.188;11.566;2022-12-29T05:25:17;7.19;54.45
64111;DHT22;50401;48.188;11.566;2022-12-29T05:27:43;7.18;54.33
64111;DHT22;50401;48.188;11.566;2022-12-29T05:30:08;7.19;54.35
64111;DHT22;50401;48.188;11.566;2022-12-29T05:32:34;7.24;54.60
64111;DHT22;50401;48.188;11.566;2022-12-29T05:34:59;7.21;54.38
64111;DHT22;50401;48.188;11.566;2022-12-29T05:37:24;7.24;54.27
64111;DHT22;50401;48.188;11.566;2022-12-29T05:39:49;7.29;54.20
64111;DHT22;50401;48.188;11.566;2022-12-29T05:42:15;7.32;53.90
64111;DHT22;50401;48.188;11.566;2022-12-29T05:44:40;7.36;53.86
64111;DHT22;50401;48.188;11.566;2022-12-29T05:47:05;7.41;53.90
64111;DHT22;50401;48.188;11.566;2022-12-29T05:49:30;7.43;53.99
64111;DHT22;50401;48.188;11.566;2022-12-29T05:51:56;7.45;54.22
64111;DHT22;50401;48.188;11.566;2022-12-29T05:54:21;7.43;54.25
64111;DHT22;50401;48.188;11.566;2022-12-29T05:56:46;7.38;53.93
64111;DHT22;50401;48.188;11.566;2022-12-29T05:59:12;7.36;53.83
64111;DHT22;50401;48.188;11.566;2022-12-29T06:01:37;7.36;54.07
64111;DHT22;50401;48.188;11.566;2022-12-29T06:04:02;7.35;54.09
64111;DHT22;50401;48.188;11.566;2022-12-29T06:06:28;7.31;54.32
64111;DHT22;50401;48.188;11.566;2022-12-29T06:08:53;7.28;54.46
64111;DHT22;50401;48.188;11.566;2022-12-29T06:11:18;7.31;54.29
64111;DHT22;50401;48.188;11.566;2022-12-29T06:13:43;7.31;54.44
64111;DHT22;50401;48.188;11.566;2022-12-29T06:16:09;7.32;54.45
64111;DHT22;50401;48.188;11.566;2022-12-29T06:18:34;7.32;54.53
64111;DHT22;50401;48.188;11.566;2022-12-29T06:21:00;7.29;54.74
64111;DHT22;50401;48.188;11.566;2022-12-29T06:23:26;7.29;54.81
64111;DHT22;50401;48.188;11.566;2022-12-29T06:25:51;7.29;55.14
64111;DHT22;50401;48.188;11.566;2022-12-29T06:28:16;7.26;55.34
64111;DHT22;50401;48.188;11.566;2022-12-29T06:30:43;7.15;55.29
64111;DHT22;50401;48.188;11.566;2022-12-29T06:33:08;7.18;55.52
64111;DHT22;50401;48.188;11.566;2022-12-29T06:35:33;7.15;55.68
64111;DHT22;50401;48.188;11.566;2022-12-29T06:37:58;7.17;55.74
64111;DHT22;50401;48.188;11.566;2022-12-29T06:40:24;7.18;55.45
64111;DHT22;50401;48.188;11.566;2022-12-29T06:42:49;7.12;55.72
64111;DHT22;50401;48.188;11.566;2022-12-29T06:45:14;7.15;56.05
64111;DHT22;50401;48.188;11.566;2022-12-29T06:47:40;7.05;56.15
64111;DHT22;50401;48.188;11.566;2022-12-29T06:50:05;7.07;56.02
64111;DHT22;50401;48.188;11.566;2022-12-29T06:52:30;7.05;56.06
64111;DHT22;50401;48.188;11.566;2022-12-29T06:54:56;7.03;56.02
64111;DHT22;50401;48.188;11.566;2022-12-29T06:57:21;7.01;56.18
64111;DHT22;50401;48.188;11.566;2022-12-29T06:59:46;7.00;56.22
64111;DHT22;50401;48.188;11.566;2022-12-29T07:02:12;7.00;56.32
64111;DHT22;50401;48.188;11.566;2022-12-29T07:04:39;7.07;56.13
64111;DHT22;50401;48.188;11.566;2022-12-29T07:07:05;7.08;55.84
64111;DHT22;50401;48.188;11.566;2022-12-29T07:09:30;7.10;55.52
64111;DHT22;50401;48.188;11.566;2022-12-29T07:11:55;7.14;55.52
64111;DHT22;50401;48.188;11.566;2022-12-29T07:14:20;7.19;55.47
64111;DHT22;50401;48.188;11.566;2022-12-29T07:16:46;7.24;55.44
64111;DHT22;50401;48.188;11.566;2022-12-29T07:19:11;7.25;55.20
64111;DHT22;50401;48.188;11.566;2022-12-29T07:21:36;7.35;54.99
64111;DHT22;50401;48.188;11.566;2022-12-29T07:24:02;7.41;54.51
64111;DHT22;50401;48.188;11.566;2022-12-29T07:26:27;7.59;53.58
64111;DHT22;50401;48.188;11.566;2022-12-29T07:28:52;7.66;53.63
64111;DHT22;50401;48.188;11.566;2022-12-29T07:31:19;7.76;53.56
64111;DHT22;50401;48.188;11.566;2022-12-29T07:33:45;7.83;53.05
64111;DHT22;50401;48.188;11.566;2022-12-29T07:36:11;7.95;52.58
64111;DHT22;50401;48.188;11.566;2022-12-29T07:38:36;7.99;52.35
64111;DHT22;50401;48.188;11.566;2022-12-29T07:41:01;8.16;52.29
64111;DHT22;50401;48.188;11.566;2022-12-29T07:43:27;8.22;51.79
64111;DHT22;50401;48.188;11.566;2022-12-29T07:45:52;8.15;52.04
64111;DHT22;50401;48.188;11.566;2022-12-29T07:48:18;8.24;52.16
64111;DHT22;50401;48.188;11.566;2022-12-29T07:50:43;8.24;52.37
64111;DHT22;50401;48.188;11.566;2022-12-29T07:53:08;8.28;52.23
64111;DHT22;50401;48.188;11.566;2022-12-29T07:55:34;8.45;51.85
64111;DHT22;50401;48.188;11.566;2022-12-29T07:57:59;8.71;50.87
64111;DHT22;50401;48.188;11.566;2022-12-29T08:00:24;9.04;50.31
64111;DHT22;50401;48.188;11.566;2022-12-29T08:02:50;9.47;49.27
64111;DHT22;50401;48.188;11.566;2022-12-29T08:05:15;11.26;45.53
64111;DHT22;50401;48.188;11.566;2022-12-29T08:07:44;14.69;37.73
64111;DHT22;50401;48.188;11.566;2022-12-29T08:10:10;16.37;34.43
64111;DHT22;50401;48.188;11.566;2022-12-29T08:12:39;18.07;31.61
64111;DHT22;50401;48.188;11.566;2022-12-29T08:15:04;18.31;30.19
64111;DHT22;50401;48.188;11.566;2022-12-29T08:17:30;19.24;28.99
64111;DHT22;50401;48.188;11.566;2022-12-29T08:19:55;18.80;29.29
64111;DHT22;50401;48.188;11.566;2022-12-29T08:22:21;18.48;30.29
64111;DHT22;50401;48.188;11.566;2022-12-29T08:24:46;17.08;31.48
64111;DHT22;50401;48.188;11.566;2022-12-29T08:27:11;16.74;32.58
64111;DHT22;50401;48.188;11.566;2022-12-29T08:29:36;14.64;35.80
64111;DHT22;50401;48.188;11.566;2022-12-29T08:32:02;15.42;35.11
64111;DHT22;50401;48.188;11.566;2022-12-29T08:34:27;16.30;33.70
64111;DHT22;50401;48.188;11.566;2022-12-29T08:36:53;14.45;36.41
64111;DHT22;50401;48.188;11.566;2022-12-29T08:39:18;13.48;38.51
64111;DHT22;50401;48.188;11.566;2022-12-29T08:41:43;13.66;38.30
64111;DHT22;50401;48.188;11.566;2022-12-29T08:44:08;15.32;35.58
64111;DHT22;50401;48.188;11.566;2022-12-29T08:46:34;16.51;34.87
64111;DHT22;50401;48.188;11.566;2022-12-29T08:48:59;15.58;34.67
64111;DHT22;50401;48.188;11.566;2022-12-29T08:51:24;14.95;35.82
64111;DHT22;50401;48.188;11.566;2022-12-29T08:53:50;13.70;37.66
64111;DHT22;50401;48.188;11.566;2022-12-29T08:56:15;12.93;39.74
64111;DHT22;50401;48.188;11.566;2022-12-29T08:58:41;12.03;41.69
64111;DHT22;50401;48.188;11.566;2022-12-29T09:01:06;11.73;42.61
64111;DHT22;50401;48.188;11.566;2022-12-29T09:03:31;12.28;42.10
64111;DHT22;50401;48.188;11.566;2022-12-29T09:05:57;12.84;40.78
64111;DHT22;50401;48.188;11.566;2022-12-29T09:08:22;15.04;37.19
64111;DHT22;50401;48.188;11.566;2022-12-29T09:10:48;16.75;34.00
64111;DHT22;50401;48.188;11.566;2022-12-29T09:13:13;17.82;31.51
64111;DHT22;50401;48.188;11.566;2022-12-29T09:15:38;17.92;30.94
64111;DHT22;50401;48.188;11.566;2022-12-29T09:18:04;17.05;32.00
64111;DHT22;50401;48.188;11.566;2022-12-29T09:20:30;17.24;31.50
64111;DHT22;50401;48.188;11.566;2022-12-29T09:22:55;17.83;30.31
64111;DHT22;50401;48.188;11.566;2022-12-29T09:25:20;17.62;30.93
64111;DHT22;50401;48.188;11.566;2022-12-29T09:27:48;16.12;32.35
64111;DHT22;50401;48.188;11.566;2022-12-29T09:30:13;16.88;31.64
64111;DHT22;50401;48.188;11.566;2022-12-29T09:32:39;16.57;33.04
64111;DHT22;50401;48.188;11.566;2022-12-29T09:35:05;16.99;32.18
64111;DHT22;50401;48.188;11.566;2022-12-29T09:37:30;17.74;30.90
64111;DHT22;50401;48.188;11.566;2022-12-29T09:39:56;17.86;30.51
64111;DHT22;50401;48.188;11.566;2022-12-29T09:42:45;16.85;32.31
64111;DHT22;50401;48.188;11.566;2022-12-29T09:45:16;14.99;35.35
64111;DHT22;50401;48.188;11.566;2022-12-29T09:47:43;13.59;37.78
64111;DHT22;50401;48.188;11.566;2022-12-29T09:50:28;13.10;39.14
64111;DHT22;50401;48.188;11.566;2022-12-29T09:52:57;12.49;40.20
64111;DHT22;50401;48.188;11.566;2022-12-29T09:55:28;12.37;40.71
64111;DHT22;50401;48.188;11.566;2022-12-29T09:57:59;12.03;41.61
64111;DHT22;50401;48.188;11.566;2022-12-29T10:03:24;11.68;42.13
64111;DHT22;50401;48.188;11.566;2022-12-29T10:15:49;10.99;44.12
64111;DHT22;50401;48.188;11.566;2022-12-29T10:18:24;11.00;44.18
64111;DHT22;50401;48.188;11.566;2022-12-29T10:21:05;10.97;44.26
64111;DHT22;50401;48.188;11.566;2022-12-29T10:25:58;11.10;44.07
64111;DHT22;50401;48.188;11.566;2022-12-29T10:28:42;11.09;43.91
64111;DHT22;50401;48.188;11.566;2022-12-29T10:31:09;11.14;43.74
64111;DHT22;50401;48.188;11.566;2022-12-29T10:33:39;11.10;43.94
64111;DHT22;50401;48.188;11.566;2022-12-29T10:39:19;11.13;43.58
64111;DHT22;50401;48.188;11.566;2022-12-29T10:41:48;11.26;43.98
64111;DHT22;50401;48.188;11.566;2022-12-29T10:44:15;11.32;43.74
64111;DHT22;50401;48.188;11.566;2022-12-29T10:46:42;11.16;43.64
64111;DHT22;50401;48.188;11.566;2022-12-29T10:49:18;11.09;43.68
64111;DHT22;50401;48.188;11.566;2022-12-29T10:51:44;11.02;43.60
64111;DHT22;50401;48.188;11.566;2022-12-29T10:54:25;11.21;43.43
64111;DHT22;50401;48.188;11.566;2022-12-29T10:59:30;11.00;43.56
64111;DHT22;50401;48.188;11.566;2022-12-29T11:04:35;11.03;44.14
64111;DHT22;50401;48.188;11.566;2022-12-29T11:07:03;10.99;44.11
64111;DHT22;50401;48.188;11.566;2022-12-29T11:09:32;10.96;44.25
64111;DHT22;50401;48.188;11.566;2022-12-29T11:11:58;10.99;44.62
64111;DHT22;50401;48.188;11.566;2022-12-29T11:14:28;10.99;44.46
64111;DHT22;50401;48.188;11.566;2022-12-29T11:16:58;10.88;44.09
64111;DHT22;50401;48.188;11.566;2022-12-29T11:19:28;11.16;44.11
64111;DHT22;50401;48.188;11.566;2022-12-29T11:21:53;11.37;43.64
64111;DHT22;50401;48.188;11.566;2022-12-29T11:24:26;11.45;43.61
64111;DHT22;50401;48.188;11.566;2022-12-29T11:26:53;11.55;43.39
64111;DHT22;50401;48.188;11.566;2022-12-29T11:29:28;11.83;43.00
64111;DHT22;50401;48.188;11.566;2022-12-29T11:32:05;11.85;42.79
64111;DHT22;50401;48.188;11.566;2022-12-29T11:34:35;11.87;43.01
64111;DHT22;50401;48.188;11.566;2022-12-29T11:37:06;12.08;43.01
64111;DHT22;50401;48.188;11.566;2022-12-29T11:42:03;12.27;42.93
64111;DHT22;50401;48.188;11.566;2022-12-29T11:44:29;12.31;43.18
64111;DHT22;50401;48.188;11.566;2022-12-29T11:46:57;12.38;43.38
64111;DHT22;50401;48.188;11.566;2022-12-29T11:49:23;12.41;43.29
64111;DHT22;50401;48.188;11.566;2022-12-29T11:51:50;12.44;43.45
64111;DHT22;50401;48.188;11.566;2022-12-29T11:54:17;12.52;43.10
64111;DHT22;50401;48.188;11.566;2022-12-29T11:56:44;12.52;42.71
64111;DHT22;50401;48.188;11.566;2022-12-29T12:01:57;12.69;42.28
64111;DHT22;50401;48.188;11.566;2022-12-29T12:04:24;12.60;42.51
64111;DHT22;50401;48.188;11.566;2022-12-29T12:07:01;12.60;42.12
64111;DHT22;50401;48.188;11.566;2022-12-29T12:09:29;12.62;42.19
64111;DHT22;50401;48.188;11.566;2022-12-29T12:11:56;12.49;42.12
64111;DHT22;50401;48.188;11.566;2022-12-29T12:14:33;12.50;41.66
64111;DHT22;50401;48.188;11.566;2022-12-29T12:17:08;12.49;41.81
64111;DHT22;50401;48.188;11.566;2022-12-29T12:22:04;12.53;41.68
64111;DHT22;50401;48.188;11.566;2022-12-29T12:29:46;12.57;41.70
64111;DHT22;50401;48.188;11.566;2022-12-29T12:33:03;12.60;41.97
64111;DHT22;50401;48.188;11.566;2022-12-29T12:35:02;12.66;42.11
64111;DHT22;50401;48.188;11.566;2022-12-29T12:37:38;12.63;42.71
64111;DHT22;50401;48.188;11.566;2022-12-29T12:43:03;12.62;43.02
64111;DHT22;50401;48.188;11.566;2022-12-29T12:58:15;12.67;46.84
64111;DHT22;50401;48.188;11.566;2022-12-29T13:03:39;12.65;47.10
64111;DHT22;50401;48.188;11.566;2022-12-29T13:13:29;12.67;47.20
64111;DHT22;50401;48.188;11.566;2022-12-29T13:16:00;12.62;46.97
64111;DHT22;50401;48.188;11.566;2022-12-29T13:21:25;12.63;47.35
64111;DHT22;50401;48.188;11.566;2022-12-29T13:26:33;12.57;47.79
64111;DHT22;50401;48.188;11.566;2022-12-29T13:29:06;12.56;48.00
64111;DHT22;50401;48.188;11.566;2022-12-29T13:34:27;12.50;48.60
64111;DHT22;50401;48.188;11.566;2022-12-29T13:36:57;12.49;48.49
64111;DHT22;50401;48.188;11.566;2022-12-29T13:39:34;12.50;48.56
64111;DHT22;50401;48.188;11.566;2022-12-29T13:42:00;12.48;48.84
64111;DHT22;50401;48.188;11.566;2022-12-29T13:44:27;12.45;49.09
64111;DHT22;50401;48.188;11.566;2022-12-29T13:46:53;12.45;49.32
64111;DHT22;50401;48.188;11.566;2022-12-29T13:49:20;12.42;49.65
64111;DHT22;50401;48.188;11.566;2022-12-29T13:57:10;12.39;51.02
64111;DHT22;50401;48.188;11.566;2022-12-29T13:59:42;12.44;51.27
64111;DHT22;50401;48.188;11.566;2022-12-29T14:04:34;12.45;51.90
64111;DHT22;50401;48.188;11.566;2022-12-29T14:09:41;12.37;52.68
64111;DHT22;50401;48.188;11.566;2022-12-29T14:14:51;12.32;53.48
64111;DHT22;50401;48.188;11.566;2022-12-29T14:17:18;12.25;53.82
64111;DHT22;50401;48.188;11.566;2022-12-29T14:19:44;12.27;54.00
64111;DHT22;50401;48.188;11.566;2022-12-29T14:22:10;12.27;54.21
64111;DHT22;50401;48.188;11.566;2022-12-29T14:24:40;12.22;54.57
64111;DHT22;50401;48.188;11.566;2022-12-29T14:34:49;12.12;55.00
64111;DHT22;50401;48.188;11.566;2022-12-29T14:37:31;12.18;54.83
64111;DHT22;50401;48.188;11.566;2022-12-29T14:42:28;11.98;55.35
64111;DHT22;50401;48.188;11.566;2022-12-29T14:45:00;11.98;55.52
64111;DHT22;50401;48.188;11.566;2022-12-29T14:47:36;12.00;55.18
64111;DHT22;50401;48.188;11.566;2022-12-29T14:50:44;11.96;55.58
64111;DHT22;50401;48.188;11.566;2022-12-29T14:52:52;12.03;55.14
64111;DHT22;50401;48.188;11.566;2022-12-29T14:58:12;11.87;55.63
64111;DHT22;50401;48.188;11.566;2022-12-29T15:00:38;11.86;55.70
64111;DHT22;50401;48.188;11.566;2022-12-29T15:03:12;11.85;55.73
64111;DHT22;50401;48.188;11.566;2022-12-29T15:05:46;11.80;55.82
64111;DHT22;50401;48.188;11.566;2022-12-29T15:08:16;11.76;55.83
64111;DHT22;50401;48.188;11.566;2022-12-29T15:10:45;11.76;55.92
64111;DHT22;50401;48.188;11.566;2022-12-29T15:13:17;11.79;55.77
64111;DHT22;50401;48.188;11.566;2022-12-29T15:15:43;11.78;55.77
64111;DHT22;50401;48.188;11.566;2022-12-29T15:20:53;11.76;56.02
64111;DHT22;50401;48.188;11.566;2022-12-29T15:23:19;11.80;54.12
64111;DHT22;50401;48.188;11.566;2022-12-29T15:25:55;11.87;54.33
64111;DHT22;50401;48.188;11.566;2022-12-29T15:28:21;11.76;54.70
64111;DHT22;50401;48.188;11.566;2022-12-29T15:30:53;11.65;53.86
64111;DHT22;50401;48.188;11.566;2022-12-29T15:33:21;11.68;54.17
64111;DHT22;50401;48.188;11.566;2022-12-29T15:35:50;11.62;53.69
64111;DHT22;50401;48.188;11.566;2022-12-29T15:38:21;11.62;53.20
64111;DHT22;50401;48.188;11.566;2022-12-29T15:40:49;11.59;53.33
64111;DHT22;50401;48.188;11.566;2022-12-29T15:45:47;11.50;51.99
64111;DHT22;50401;48.188;11.566;2022-12-29T15:48:16;11.52;52.07
64111;DHT22;50401;48.188;11.566;2022-12-29T15:50:43;11.50;51.91
64111;DHT22;50401;48.188;11.566;2022-12-29T15:53:09;11.44;51.87
64111;DHT22;50401;48.188;11.566;2022-12-29T15:55:36;11.42;51.76
64111;DHT22;50401;48.188;11.566;2022-12-29T15:58:03;11.38;51.77
64111;DHT22;50401;48.188;11.566;2022-12-29T16:02:54;11.38;51.89
64111;DHT22;50401;48.188;11.566;2022-12-29T16:05:20;11.27;52.00
64111;DHT22;50401;48.188;11.566;2022-12-29T16:07:53;11.28;52.14
64111;DHT22;50401;48.188;11.566;2022-12-29T16:10:53;11.21;52.40
64111;DHT22;50401;48.188;11.566;2022-12-29T16:15:49;11.23;52.83
64111;DHT22;50401;48.188;11.566;2022-12-29T16:18:20;11.21;52.81
64111;DHT22;50401;48.188;11.566;2022-12-29T16:20:47;11.23;52.90
64111;DHT22;50401;48.188;11.566;2022-12-29T16:23:16;11.26;52.72
64111;DHT22;50401;48.188;11.566;2022-12-29T16:25:43;11.11;52.57
64111;DHT22;50401;48.188;11.566;2022-12-29T16:28:18;11.02;52.70
64111;DHT22;50401;48.188;11.566;2022-12-29T16:30:44;11.03;53.13
64111;DHT22;50401;48.188;11.566;2022-12-29T16:33:38;10.95;53.46
64111;DHT22;50401;48.188;11.566;2022-12-29T16:36:01;10.97;53.43
64111;DHT22;50401;48.188;11.566;2022-12-29T16:38:30;11.06;53.43
64111;DHT22;50401;48.188;11.566;2022-12-29T16:43:25;10.99;53.45
64111;DHT22;50401;48.188;11.566;2022-12-29T16:50:42;10.96;55.42
64111;DHT22;50401;48.188;11.566;2022-12-29T16:55:52;11.02;55.72
64111;DHT22;50401;48.188;11.566;2022-12-29T16:58:24;11.03;56.03
64111;DHT22;50401;48.188;11.566;2022-12-29T17:00:52;11.04;56.13
64111;DHT22;50401;48.188;11.566;2022-12-29T17:03:18;11.03;56.62
64111;DHT22;50401;48.188;11.566;2022-12-29T17:05:43;10.99;57.07
64111;DHT22;50401;48.188;11.566;2022-12-29T17:08:18;10.83;57.64
64111;DHT22;50401;48.188;11.566;2022-12-29T17:10:49;10.73;57.37
64111;DHT22;50401;48.188;11.566;2022-12-29T17:13:32;10.72;57.36
64111;DHT22;50401;48.188;11.566;2022-12-29T17:15:58;10.71;57.38
64111;DHT22;50401;48.188;11.566;2022-12-29T17:18:23;10.76;57.38
64111;DHT22;50401;48.188;11.566;2022-12-29T17:20:48;10.78;57.81
64111;DHT22;50401;48.188;11.566;2022-12-29T17:23:14;10.86;58.02
64111;DHT22;50401;48.188;11.566;2022-12-29T17:25:40;10.85;58.27
64111;DHT22;50401;48.188;11.566;2022-12-29T17:31:01;10.86;58.74
64111;DHT22;50401;48.188;11.566;2022-12-29T17:33:27;10.89;58.89
64111;DHT22;50401;48.188;11.566;2022-12-29T17:35:55;10.91;59.02
64111;DHT22;50401;48.188;11.566;2022-12-29T17:38:30;10.89;58.99
64111;DHT22;50401;48.188;11.566;2022-12-29T17:40:56;10.85;59.23
64111;DHT22;50401;48.188;11.566;2022-12-29T17:43:22;10.91;59.41
64111;DHT22;50401;48.188;11.566;2022-12-29T17:45:57;10.89;59.58
64111;DHT22;50401;48.188;11.566;2022-12-29T17:48:23;10.86;59.83
64111;DHT22;50401;48.188;11.566;2022-12-29T17:50:49;10.82;60.11
64111;DHT22;50401;48.188;11.566;2022-12-29T17:53:17;10.88;60.01
64111;DHT22;50401;48.188;11.566;2022-12-29T17:55:44;10.91;60.03
64111;DHT22;50401;48.188;11.566;2022-12-29T17:58:13;10.82;60.35
64111;DHT22;50401;48.188;11.566;2022-12-29T18:00:39;10.83;60.35
64111;DHT22;50401;48.188;11.566;2022-12-29T18:03:04;10.80;60.54
64111;DHT22;50401;48.188;11.566;2022-12-29T18:05:29;10.76;60.58